»·PEaware :: N7472H L88-KSBP

N7472H :: L88-KSBP

FLIGHT INFORMATION

Flight Status: Arrived
Operator: Privately registered:
United States
More flights under this callsign
Pilot: Valentin D. (2493)
Aircraft: CESSNA 172 SKYHAWK
(C172)
More flights by this aircraft type
Origin: L88 New Cuyama
United States
Destination: KSBP San Luis Co Regl
United States
More flights between these airports :: More routes between these airports
Route:
File this flight plan on PilotEdge
Remarks:
Altitude:
(Current/Filed)
6,500ft
Speed:
(Current/Filed)
100kts
Departed: 21-Nov-20 08:54 AM
Arrived: 21-Nov-20 09:23 AM
Distance/Time
Traveled:
50nm/0:28
Distance/Time
To Go:
Arrived

Flight Plot

Page will automatically refresh every two minutes.


Map Options




Map Legend


Flown Route
Filed Route
Departure Airport
Arrival Airport
Navaid (VOR, NDB)
Fix

Horizontal Profiles

Position Reports

Time Latitude Longitude Heading Altitude Ground
Speed
21-Nov-20 08:36 34.942708 -119.690149 294 2154ft 0kts
21-Nov-20 08:37 34.942708 -119.690149 294 2154ft 0kts
21-Nov-20 08:38 34.942708 -119.690149 294 2154ft 0kts
21-Nov-20 08:39 34.942708 -119.690149 294 2154ft 0kts
21-Nov-20 08:40 34.942708 -119.690149 294 2154ft 0kts
21-Nov-20 08:41 34.942708 -119.690149 294 2154ft 0kts
21-Nov-20 08:42 34.942708 -119.690149 294 2154ft 0kts
21-Nov-20 08:43 34.942708 -119.690149 294 2154ft 0kts
21-Nov-20 08:44 34.942708 -119.690149 294 2154ft 0kts
21-Nov-20 08:45 34.942708 -119.690149 294 2154ft 0kts
21-Nov-20 08:46 34.942708 -119.690149 294 2154ft 0kts
21-Nov-20 08:47 34.942708 -119.690149 294 2154ft 0kts
21-Nov-20 08:48 34.942708 -119.690149 294 2154ft 0kts
21-Nov-20 08:49 34.942708 -119.690149 294 2154ft 0kts
21-Nov-20 08:50 34.942708 -119.690149 294 2154ft 0kts
21-Nov-20 08:51 34.942708 -119.690149 294 2154ft 0kts
21-Nov-20 08:52 35.058010 -120.064168 0 6493ft 0kts
21-Nov-20 08:53 35.067717 -120.099825 289 6495ft 109kts
21-Nov-20 08:54 35.077151 -120.134892 288 6492ft 107kts
21-Nov-20 08:55 35.086266 -120.169125 288 6501ft 106kts
21-Nov-20 08:56 35.095697 -120.205397 288 6214ft 118kts
21-Nov-20 08:57 35.106257 -120.244381 290 5682ft 121kts
21-Nov-20 08:58 35.117514 -120.283833 291 5164ft 123kts
21-Nov-20 08:59 35.129254 -120.323529 292 4670ft 124kts
21-Nov-20 09:00 35.141364 -120.362656 293 4149ft 122kts
21-Nov-20 09:01 35.153958 -120.401650 293 3550ft 123kts
21-Nov-20 09:02 35.166250 -120.440589 292 2958ft 122kts
21-Nov-20 09:03 35.178080 -120.477715 292 2685ft 109kts
21-Nov-20 09:04 35.188841 -120.511724 292 2658ft 104kts
21-Nov-20 09:05 35.198962 -120.544506 292 2682ft 103kts
21-Nov-20 09:06 35.191160 -120.578033 236 2677ft 107kts
21-Nov-20 09:07 35.169043 -120.602553 215 2674ft 108kts
21-Nov-20 09:08 35.143359 -120.620300 187 2662ft 104kts
21-Nov-20 09:09 35.119411 -120.608406 110 2665ft 97kts
21-Nov-20 09:10 35.110587 -120.577218 85 2660ft 97kts
21-Nov-20 09:11 35.117446 -120.545397 74 2671ft 97kts
21-Nov-20 09:12 35.125228 -120.513723 66 2668ft 97kts
21-Nov-20 09:13 35.138645 -120.484491 60 2668ft 98kts
21-Nov-20 09:14 35.154185 -120.456815 44 2667ft 99kts
21-Nov-20 09:15 35.178805 -120.453184 313 2678ft 103kts
21-Nov-20 09:16 35.189428 -120.486373 284 2675ft 106kts
21-Nov-20 09:17 35.195959 -120.521300 280 2664ft 99kts
21-Nov-20 09:18 35.198705 -120.553478 277 2449ft 98kts
21-Nov-20 09:19 35.204614 -120.584702 302 1548ft 93kts
21-Nov-20 09:20 35.219156 -120.609492 307 967ft 91kts
21-Nov-20 09:21 35.233264 -120.633996 307 231ft 73kts
21-Nov-20 09:22 35.239308 -120.644169 334 181ft 8kts
21-Nov-20 09:23 35.239799 -120.644085 40 181ft 0kts
21-Nov-20 09:24 35.239799 -120.644085 40 181ft 0kts
21-Nov-20 09:25 35.239922 -120.643783 89 182ft 3kts
21-Nov-20 09:27 35.238472 -120.641275 88 190ft 0kts
21-Nov-20 09:28 35.238688 -120.640963 28 191ft 0kts

Navigation Log

Ident Type
Flight plan parsing failed, navigation log unavailable